createdAt,value
2023-03-23T15:59:49.949Z,61.46
2023-03-23T16:02:22.576Z,61.44
2023-03-23T16:04:52.136Z,61.74
2023-03-23T16:07:23.779Z,61.48
2023-03-23T16:09:50.738Z,61.77
2023-03-23T16:12:17.802Z,62.38
2023-03-23T16:14:46.127Z,63.19
2023-03-23T16:17:20.018Z,63.37
2023-03-23T16:19:47.592Z,63.68
2023-03-23T16:22:15.537Z,64.01
2023-03-23T16:24:44.263Z,63.88
2023-03-23T16:27:12.925Z,63.61
2023-03-23T16:30:00.377Z,63.60
2023-03-23T16:32:30.589Z,63.85
2023-03-23T16:34:57.453Z,63.59
2023-03-23T16:37:24.269Z,62.83
2023-03-23T16:39:51.135Z,63.12
2023-03-23T16:42:18.273Z,63.43
2023-03-23T16:44:45.192Z,63.89
2023-03-23T16:47:12.000Z,64.23
2023-03-23T16:49:40.167Z,64.61
2023-03-23T16:52:07.556Z,65.21
2023-03-23T16:54:34.947Z,64.89
2023-03-23T16:57:01.842Z,65.15
2023-03-23T16:59:29.082Z,65.15
2023-03-23T17:01:56.402Z,65.07
2023-03-23T17:04:23.340Z,65.55
2023-03-23T17:06:56.039Z,66.15
2023-03-23T17:09:29.890Z,66.18
2023-03-23T17:11:58.166Z,67.26
2023-03-23T17:17:55.456Z,67.59
2023-03-23T17:20:23.298Z,67.24
2023-03-23T17:27:09.405Z,67.34
2023-03-23T17:33:13.206Z,67.22
2023-03-23T17:36:09.286Z,68.39
2023-03-23T17:43:10.657Z,70.02
2023-03-23T17:45:40.609Z,69.99
2023-03-23T17:48:15.732Z,70.39
2023-03-23T17:51:03.031Z,70.50
2023-03-23T17:53:31.910Z,69.90
2023-03-23T17:55:59.260Z,70.00
2023-03-23T17:58:27.995Z,69.78
2023-03-23T18:01:20.430Z,70.38
2023-03-23T18:08:28.555Z,69.78
2023-03-23T18:10:58.021Z,69.21
2023-03-23T18:13:29.151Z,69.66
2023-03-23T18:18:53.298Z,70.40
2023-03-23T18:21:28.798Z,70.23
2023-03-23T18:24:00.181Z,69.87
2023-03-23T18:26:49.587Z,69.10
2023-03-23T18:29:35.336Z,68.46
2023-03-23T18:32:02.323Z,68.11
2023-03-23T18:34:29.379Z,67.71
2023-03-23T18:36:56.272Z,67.30
2023-03-23T18:39:24.161Z,65.84
2023-03-23T18:41:51.009Z,64.47
2023-03-23T18:44:19.488Z,64.36
2023-03-23T18:46:46.285Z,63.97
2023-03-23T18:49:14.232Z,63.71
2023-03-23T18:51:41.917Z,63.34
2023-03-23T18:54:09.415Z,63.33
2023-03-23T18:56:36.274Z,62.94
2023-03-23T18:59:03.243Z,62.43
2023-03-23T19:01:31.718Z,62.26
2023-03-23T19:03:58.755Z,61.71
2023-03-23T19:06:27.384Z,61.36
2023-03-23T19:08:54.699Z,60.99
2023-03-23T19:11:23.779Z,60.34
2023-03-23T19:14:01.525Z,59.66
2023-03-23T19:16:34.244Z,59.52
2023-03-23T19:19:05.002Z,59.00
2023-03-23T19:21:32.542Z,58.66
2023-03-23T19:24:00.711Z,58.12
2023-03-23T19:26:31.557Z,58.47
2023-03-23T19:31:31.665Z,57.60
2023-03-23T19:33:59.111Z,57.26
2023-03-23T19:36:26.767Z,56.55
2023-03-23T19:38:54.163Z,56.54
2023-03-23T19:41:21.818Z,56.51
2023-03-23T19:43:48.644Z,56.34
2023-03-23T19:46:16.457Z,55.42
2023-03-23T19:48:46.357Z,55.49
2023-03-23T19:51:18.187Z,54.86
2023-03-23T19:53:45.855Z,55.29
2023-03-23T19:56:15.588Z,55.59
2023-03-23T19:58:43.265Z,55.05
2023-03-23T20:01:10.675Z,55.58
2023-03-23T20:03:37.863Z,55.94
2023-03-23T20:06:08.756Z,55.80
2023-03-23T20:08:40.221Z,55.26
2023-03-23T20:11:13.289Z,55.05
2023-03-23T20:13:40.977Z,55.31
2023-03-23T20:16:09.090Z,55.29
2023-03-23T20:18:37.284Z,55.25
2023-03-23T20:21:10.299Z,55.08
2023-03-23T20:23:39.752Z,55.56
2023-03-23T20:26:11.686Z,55.23
2023-03-23T20:28:40.733Z,55.31
2023-03-23T20:31:19.522Z,56.19
2023-03-23T20:34:00.733Z,56.26
2023-03-23T20:36:32.432Z,56.75
2023-03-23T20:38:59.243Z,56.66
2023-03-23T20:41:26.096Z,57.07
2023-03-23T20:43:53.427Z,57.36
2023-03-23T20:46:20.498Z,57.14
2023-03-23T20:48:47.850Z,57.60
2023-03-23T20:51:14.718Z,57.50
2023-03-23T20:53:43.328Z,57.67
2023-03-23T20:56:10.518Z,57.20
2023-03-23T20:58:37.915Z,57.72
2023-03-23T21:01:06.710Z,57.33
2023-03-23T21:03:39.333Z,57.64
2023-03-23T21:06:08.737Z,57.95
2023-03-23T21:08:38.558Z,58.14
2023-03-23T21:11:13.821Z,58.43
2023-03-23T21:13:40.598Z,58.54
2023-03-23T21:16:07.355Z,58.89
2023-03-23T21:18:34.446Z,59.10
2023-03-23T21:21:01.612Z,58.83
2023-03-23T21:23:29.368Z,58.83
2023-03-23T21:26:01.478Z,59.05
2023-03-23T21:28:30.361Z,58.89
2023-03-23T21:31:00.740Z,58.94
2023-03-23T21:33:28.151Z,58.80
2023-03-23T21:35:55.625Z,59.48
2023-03-23T21:38:22.949Z,59.44
2023-03-23T21:40:49.820Z,59.75
2023-03-23T21:43:16.660Z,59.87
2023-03-23T21:45:46.038Z,59.73
2023-03-23T21:48:13.299Z,59.92
2023-03-23T21:50:41.811Z,59.97
2023-03-23T21:53:09.937Z,59.76
2023-03-23T21:55:36.911Z,60.07
2023-03-23T21:58:03.876Z,60.17
2023-03-23T22:00:30.674Z,60.78
2023-03-23T22:02:58.971Z,60.58
2023-03-23T22:05:25.908Z,60.90
2023-03-23T22:07:52.898Z,61.10
2023-03-23T22:10:20.221Z,61.51
2023-03-23T22:12:47.248Z,61.24
2023-03-23T22:15:14.611Z,61.03
2023-03-23T22:17:41.574Z,61.49
2023-03-23T22:20:13.654Z,60.88
2023-03-23T22:22:40.841Z,60.71
2023-03-23T22:25:08.225Z,60.54
2023-03-23T22:27:35.156Z,61.33
2023-03-23T22:30:02.137Z,61.08
2023-03-23T22:32:29.210Z,61.09
2023-03-23T22:34:56.142Z,61.15
2023-03-23T22:37:24.458Z,61.43
2023-03-23T22:39:51.734Z,61.44
2023-03-23T22:42:18.616Z,61.51
2023-03-23T22:44:45.594Z,61.09
2023-03-23T22:47:12.738Z,61.74
2023-03-23T22:49:39.814Z,61.74
2023-03-23T22:52:06.787Z,62.11
2023-03-23T22:54:35.246Z,62.55
2023-03-23T22:57:02.263Z,62.12
2023-03-23T22:59:29.227Z,62.42
2023-03-23T23:01:56.156Z,62.32
2023-03-23T23:04:23.134Z,62.57
2023-03-23T23:06:50.931Z,62.68
2023-03-23T23:09:20.605Z,63.16
2023-03-23T23:11:48.810Z,63.17
2023-03-23T23:14:16.011Z,63.29
2023-03-23T23:16:42.952Z,62.81
2023-03-23T23:19:10.083Z,63.02
2023-03-23T23:21:37.240Z,62.85
2023-03-23T23:24:04.488Z,63.39
2023-03-23T23:26:31.550Z,63.57
2023-03-23T23:29:00.331Z,63.28
2023-03-23T23:31:29.622Z,64.11
2023-03-23T23:33:59.641Z,64.28
2023-03-23T23:36:28.409Z,64.35
2023-03-23T23:38:56.454Z,64.67
2023-03-23T23:41:23.988Z,65.02
2023-03-23T23:43:50.923Z,65.01
2023-03-23T23:46:19.417Z,64.71
2023-03-23T23:48:46.607Z,66.46
2023-03-23T23:51:13.943Z,66.21
2023-03-23T23:53:41.065Z,66.03
2023-03-23T23:56:10.253Z,66.45
2023-03-23T23:58:37.191Z,66.88
